Date,TemperatureHighF,TemperatureAvgF,TemperatureLowF,DewpointHighF,DewpointAvgF,DewpointLowF,HumidityHigh,HumidityAvg,HumidityLow,PressureMaxIn,PressureMinIn,WindSpeedMaxMPH,WindSpeedAvgMPH,GustSpeedMaxMPH,PrecipitationSumIn
2013-1-1,36.0,33.4,29.0,31.8,27.0,18.0,90,78,61,30.18,30.06,3,1,8,0.07
2013-1-2,34.7,28.4,22.2,19.8,16.4,10.0,81,62,41,30.29,30.17,2,0,8,0.01
2013-1-3,38.8,29.7,20.0,22.4,16.8,11.0,80,60,39,30.36,30.24,5,1,8,0.01
2013-1-4,40.2,34.2,31.5,22.4,20.4,17.4,66,57,41,30.39,30.32,7,3,12,0.00
2013-1-5,43.1,34.5,24.2,27.7,23.2,19.2,82,64,44,30.41,30.19,5,1,8,0.00
2013-1-6,41.2,36.0,30.1,30.3,25.6,19.3,74,66,61,30.39,30.06,5,2,8,0.00
2013-1-7,43.2,33.3,24.7,23.9,22.1,19.8,82,65,44,30.51,30.28,5,1,8,0.00
2013-1-8,54.1,36.8,24.7,30.7,26.0,20.1,84,68,38,30.37,30.25,7,1,9,0.00
2013-1-9,56.7,45.4,34.3,45.2,35.8,28.9,86,71,44,30.53,30.23,7,1,10,0.06
2013-1-10,44.8,38.5,31.6,39.3,33.3,28.5,89,82,64,30.54,30.11,3,0,4,0.16
2013-1-11,63.9,55.0,44.6,54.1,47.4,38.5,90,77,53,30.11,29.89,9,2,12,0.55
2013-1-12,67.1,58.3,47.1,61.5,54.1,44.0,93,86,74,30.03,29.80,4,1,8,0.01
2013-1-13,68.9,57.4,37.8,60.2,52.0,32.8,89,83,65,30.15,29.72,10,3,18,0.86
2013-1-14,37.6,29.6,26.1,32.6,21.1,18.4,82,70,60,30.48,30.15,3,1,6,0.00
2013-1-15,34.0,30.3,26.1,24.8,20.8,18.2,77,68,58,30.40,30.11,4,1,8,0.00
2013-1-16,38.0,34.4,31.8,27.7,26.2,23.7,80,72,57,30.12,30.01,4,1,7,0.00
2013-1-17,46.5,36.7,30.9,26.7,24.3,19.7,75,61,39,30.41,30.13,5,1,10,0.00
2013-1-18,41.9,32.5,22.9,22.2,16.7,12.4,76,53,32,30.57,30.27,6,2,11,0.00
2013-1-19,56.5,46.8,38.8,26.0,22.3,19.8,51,39,26,30.27,29.94,13,7,21,0.00
2013-1-20,47.7,38.1,29.4,33.3,14.8,4.9,61,39,24,30.26,29.94,5,2,11,0.00
2013-1-21,29.4,24.7,15.7,15.7,8.1,-2.9,63,49,33,30.30,30.14,5,2,10,0.00
2013-1-22,23.0,15.6,9.3,0.3,-2.6,-6.3,61,45,28,30.46,30.30,4,1,8,0.00
2013-1-23,18.3,16.9,15.9,1.1,-0.6,-2.0,50,46,41,30.41,30.38,2,1,7,0.00
2013-1-30,58.6,48.8,34.7,50.5,40.0,23.0,81,72,62,29.58,29.28,11,6,21,0.61
2013-1-31,34.6,29.3,20.5,23.9,16.8,8.9,83,60,44,30.08,29.60,9,4,24,0.00